createdAt,value
2023-05-05T00:03:30.130Z,4.97
2023-05-05T00:05:57.662Z,4.95
2023-05-05T00:08:24.816Z,4.60
2023-05-05T00:10:54.579Z,4.68
2023-05-05T00:13:21.931Z,4.60
2023-05-05T00:15:50.800Z,4.63
2023-05-05T00:18:18.516Z,4.38
2023-05-05T00:20:47.612Z,4.22
2023-05-05T00:23:19.636Z,4.38
2023-05-05T00:25:47.019Z,4.10
2023-05-05T00:28:16.622Z,4.10
2023-05-05T00:30:43.940Z,4.03
2023-05-05T00:33:11.292Z,3.50
2023-05-05T00:35:38.404Z,4.18
2023-05-05T00:38:05.777Z,3.80
2023-05-05T00:40:33.175Z,3.38
2023-05-05T00:43:00.228Z,3.33
2023-05-05T00:45:27.434Z,3.65
2023-05-05T00:47:57.155Z,4.20
2023-05-05T00:50:26.541Z,3.58
2023-05-05T00:53:00.546Z,3.92
2023-05-05T00:55:29.445Z,4.80
2023-05-05T00:57:58.729Z,4.20
2023-05-05T01:01:04.030Z,4.30
2023-05-05T01:03:33.637Z,4.75
2023-05-05T01:06:07.156Z,4.50
2023-05-05T01:11:27.119Z,5.90
2023-05-05T01:14:13.526Z,7.15
2023-05-05T01:16:55.916Z,7.57
2023-05-05T01:19:49.893Z,7.80
2023-05-05T01:22:23.958Z,8.10
2023-05-05T01:25:00.179Z,7.82
2023-05-05T01:28:03.199Z,8.35
2023-05-05T01:30:48.999Z,7.43
2023-05-05T01:33:26.360Z,7.72
2023-05-05T01:36:00.055Z,6.30
2023-05-05T01:38:35.277Z,6.63
2023-05-05T01:41:15.710Z,5.95
2023-05-05T01:43:46.332Z,4.55
2023-05-05T01:46:17.875Z,4.80
2023-05-05T01:48:49.943Z,4.57
2023-05-05T01:51:19.498Z,4.97
2023-05-05T01:53:50.521Z,4.80
2023-05-05T01:56:18.798Z,4.20
2023-05-05T01:58:47.746Z,4.47
2023-05-05T02:01:19.289Z,4.75
2023-05-05T02:03:51.496Z,4.60
2023-05-05T02:06:23.977Z,5.32
2023-05-05T02:08:53.066Z,4.07
2023-05-05T02:11:21.970Z,5.25
2023-05-05T02:13:53.343Z,4.85
2023-05-05T02:16:22.997Z,4.60
2023-05-05T02:18:51.075Z,4.60
2023-05-05T02:21:21.190Z,5.07
2023-05-05T02:23:52.148Z,4.55
2023-05-05T02:26:21.999Z,4.82
2023-05-05T02:29:13.191Z,5.25
2023-05-05T02:31:47.902Z,4.47
2023-05-05T02:34:35.109Z,5.07
2023-05-05T02:37:07.258Z,5.43
2023-05-05T02:39:58.577Z,5.50
2023-05-05T02:42:36.733Z,5.32
2023-05-05T02:45:11.467Z,4.88
2023-05-05T02:47:41.820Z,5.20
2023-05-05T02:50:09.922Z,5.18
2023-05-05T02:52:40.627Z,5.43
2023-05-05T02:55:10.705Z,5.00
2023-05-05T02:57:40.366Z,5.63
2023-05-05T03:00:30.727Z,5.10
2023-05-05T03:03:14.383Z,5.80
2023-05-05T03:05:49.583Z,5.57
2023-05-05T03:08:20.846Z,5.53
2023-05-05T03:10:59.232Z,5.65
2023-05-05T03:13:30.388Z,5.30
2023-05-05T03:15:58.762Z,4.95
2023-05-05T03:18:32.567Z,5.35
2023-05-05T03:21:08.620Z,5.22
2023-05-05T03:23:38.944Z,5.15
2023-05-05T03:26:11.403Z,5.00
2023-05-05T03:28:42.448Z,4.28
2023-05-05T03:31:28.562Z,5.00
2023-05-05T03:34:01.495Z,5.85
2023-05-05T03:36:36.243Z,4.30
2023-05-05T03:39:03.887Z,4.68
2023-05-05T03:41:33.667Z,4.57
2023-05-05T03:44:00.960Z,4.45
2023-05-05T03:46:28.178Z,4.70
2023-05-05T03:48:58.483Z,5.60
2023-05-05T03:51:31.379Z,4.72
2023-05-05T03:53:59.650Z,5.22
2023-05-05T03:56:27.455Z,5.05
2023-05-05T03:58:54.545Z,4.10
2023-05-05T04:01:21.857Z,4.57
2023-05-05T04:03:49.281Z,5.03
2023-05-05T04:06:16.366Z,5.50
2023-05-05T04:08:43.414Z,4.43
2023-05-05T04:11:11.065Z,4.95
2023-05-05T04:13:39.240Z,5.45
2023-05-05T04:16:07.408Z,4.90
2023-05-05T04:18:34.539Z,5.07
2023-05-05T04:21:01.925Z,4.60
2023-05-05T04:23:29.136Z,4.50
2023-05-05T04:25:56.294Z,4.80
2023-05-05T04:28:25.663Z,4.95
2023-05-05T04:30:52.872Z,5.25
2023-05-05T04:33:20.445Z,4.45
2023-05-05T04:35:49.399Z,4.63
2023-05-05T04:38:16.612Z,5.57
2023-05-05T04:40:43.879Z,5.25
2023-05-05T04:43:11.673Z,5.13
2023-05-05T04:45:39.679Z,5.70
2023-05-05T04:48:06.959Z,5.38
2023-05-05T04:50:34.043Z,5.10
2023-05-05T04:53:03.548Z,6.15
2023-05-05T04:55:30.698Z,5.40
2023-05-05T04:57:57.981Z,5.72
2023-05-05T05:00:25.096Z,5.47
2023-05-05T05:02:53.504Z,5.68
2023-05-05T05:05:21.794Z,6.13
2023-05-05T05:07:48.932Z,5.82
2023-05-05T05:10:16.278Z,6.03
2023-05-05T05:12:43.491Z,5.75
2023-05-05T05:15:11.296Z,6.18
2023-05-05T05:17:40.768Z,6.43
2023-05-05T05:20:11.055Z,6.13
2023-05-05T05:22:40.903Z,6.97
2023-05-05T05:25:12.950Z,6.13
2023-05-05T05:28:06.069Z,6.00
2023-05-05T05:30:45.997Z,5.88
2023-05-05T05:33:19.183Z,6.63
2023-05-05T05:35:47.111Z,6.63
2023-05-05T05:38:21.255Z,5.93
2023-05-05T05:40:52.064Z,6.90
2023-05-05T05:43:31.705Z,6.72
2023-05-05T05:46:14.253Z,6.72
2023-05-05T05:48:44.925Z,6.85
2023-05-05T05:51:17.777Z,8.02
2023-05-05T05:53:51.047Z,6.60
2023-05-05T05:56:28.771Z,7.05
2023-05-05T05:59:04.613Z,6.65
2023-05-05T06:04:29.478Z,7.68
2023-05-05T06:06:58.826Z,7.38
2023-05-05T06:09:33.780Z,7.00
2023-05-05T06:12:04.421Z,7.82
2023-05-05T06:17:36.736Z,7.68
2023-05-05T06:20:10.583Z,7.93
2023-05-05T06:22:41.002Z,8.15
2023-05-05T06:25:14.645Z,7.65
2023-05-05T06:27:44.250Z,8.15
2023-05-05T06:30:15.526Z,8.10
2023-05-05T06:32:44.637Z,7.20
2023-05-05T06:35:21.754Z,7.05
2023-05-05T06:37:51.754Z,7.80
2023-05-05T06:40:21.593Z,8.45
2023-05-05T06:42:51.600Z,7.70
2023-05-05T06:45:32.474Z,7.97
2023-05-05T06:48:03.486Z,7.38
2023-05-05T06:50:39.892Z,7.38
2023-05-05T06:53:07.470Z,6.97
2023-05-05T06:56:11.938Z,8.68
2023-05-05T06:58:56.132Z,8.02
2023-05-05T07:01:37.231Z,7.40
2023-05-05T07:04:10.641Z,7.57
2023-05-05T07:06:49.473Z,7.38
2023-05-05T07:09:54.959Z,7.13
2023-05-05T07:12:29.580Z,6.70
2023-05-05T07:15:23.371Z,7.78
2023-05-05T07:18:07.018Z,8.00
2023-05-05T07:20:51.786Z,9.73
2023-05-05T07:23:29.343Z,9.10
2023-05-05T07:26:25.655Z,8.75
2023-05-05T07:29:06.897Z,9.23
2023-05-05T07:31:45.887Z,8.90
2023-05-05T07:34:26.715Z,8.68
2023-05-05T07:37:09.085Z,9.82
2023-05-05T07:39:51.235Z,8.32
2023-05-05T07:42:32.407Z,7.97
2023-05-05T07:45:14.141Z,8.45
2023-05-05T07:47:49.937Z,9.38
2023-05-05T07:50:31.542Z,10.18
2023-05-05T07:55:48.727Z,9.18
2023-05-05T07:58:16.237Z,10.07
2023-05-05T08:00:44.160Z,8.80
2023-05-05T08:03:13.250Z,9.75
2023-05-05T08:05:42.847Z,9.48
2023-05-05T08:08:10.698Z,9.18
2023-05-05T08:10:43.683Z,11.43
2023-05-05T08:13:18.517Z,10.95
2023-05-05T08:15:55.473Z,10.43
2023-05-05T08:18:32.319Z,9.80
2023-05-05T08:21:02.564Z,9.25
2023-05-05T08:23:33.111Z,6.40
2023-05-05T08:26:04.775Z,7.15
2023-05-05T08:28:33.044Z,7.88
2023-05-05T08:31:02.524Z,7.45
2023-05-05T08:33:33.627Z,6.95
2023-05-05T08:36:03.672Z,6.28
2023-05-05T08:38:34.578Z,7.10
2023-05-05T08:41:05.186Z,6.45
2023-05-05T08:43:36.639Z,6.35
2023-05-05T08:46:05.703Z,5.18
2023-05-05T08:48:37.173Z,5.60
2023-05-05T08:51:06.948Z,5.93
2023-05-05T08:53:57.977Z,5.95
2023-05-05T08:56:27.805Z,6.03
2023-05-05T08:58:57.041Z,6.28
2023-05-05T09:01:24.435Z,6.60
2023-05-05T09:04:08.124Z,5.25
2023-05-05T09:07:04.183Z,5.78
2023-05-05T09:09:48.213Z,5.20
2023-05-05T09:12:32.032Z,4.50
2023-05-05T09:15:15.572Z,4.95
2023-05-05T09:17:54.595Z,4.40
2023-05-05T09:20:41.646Z,4.65
2023-05-05T09:23:23.192Z,4.40
2023-05-05T09:26:11.168Z,4.50
2023-05-05T09:28:52.818Z,4.57
2023-05-05T09:31:20.363Z,3.50
2023-05-05T09:33:50.105Z,4.20
2023-05-05T09:36:51.758Z,5.18
2023-05-05T09:39:31.421Z,5.13
2023-05-05T09:42:06.364Z,4.90
2023-05-05T09:47:41.975Z,5.25
2023-05-05T09:50:19.046Z,4.68
2023-05-05T09:52:57.838Z,4.82
2023-05-05T09:55:42.253Z,5.03
2023-05-05T09:58:20.051Z,5.25
2023-05-05T10:00:47.991Z,5.18
2023-05-05T10:03:18.081Z,5.28
2023-05-05T10:05:55.832Z,4.85
2023-05-05T10:08:28.729Z,5.15
2023-05-05T10:11:06.694Z,5.03
2023-05-05T10:13:39.854Z,5.28
2023-05-05T10:16:27.397Z,4.97
2023-05-05T10:19:05.337Z,6.57
2023-05-05T10:24:38.449Z,5.38
2023-05-05T10:27:15.572Z,6.00
2023-05-05T10:30:04.898Z,4.78
2023-05-05T10:35:31.509Z,5.32
2023-05-05T10:38:06.180Z,4.72
2023-05-05T10:40:36.974Z,4.22
2023-05-05T10:43:08.528Z,5.68
2023-05-05T10:45:38.041Z,4.40
2023-05-05T10:48:09.302Z,4.93
2023-05-05T10:50:41.924Z,5.35
2023-05-05T10:53:29.431Z,4.90
2023-05-05T10:56:09.197Z,4.47
2023-05-05T10:58:58.352Z,4.55
2023-05-05T11:01:36.644Z,4.37
2023-05-05T11:04:39.064Z,4.57
2023-05-05T11:07:11.869Z,4.05
2023-05-05T11:10:01.767Z,3.72
2023-05-05T11:12:32.911Z,4.22
2023-05-05T11:15:24.789Z,4.00
2023-05-05T11:17:55.305Z,4.40
2023-05-05T11:20:41.251Z,3.83
2023-05-05T11:23:08.873Z,3.30
2023-05-05T11:25:41.262Z,4.00
2023-05-05T11:28:14.460Z,4.05
2023-05-05T11:31:00.873Z,3.40
2023-05-05T11:33:33.146Z,3.80
2023-05-05T11:36:11.941Z,3.80
2023-05-05T11:38:48.562Z,5.10
2023-05-05T11:41:27.712Z,3.20
2023-05-05T11:44:17.107Z,3.50
2023-05-05T11:47:05.022Z,3.58
2023-05-05T11:49:39.892Z,4.32
2023-05-05T11:52:07.843Z,3.25
2023-05-05T11:54:37.398Z,3.88
2023-05-05T11:57:08.682Z,3.63
2023-05-05T11:59:58.341Z,3.35
2023-05-05T12:02:30.385Z,3.78
2023-05-05T12:05:08.245Z,4.05
2023-05-05T12:07:48.181Z,4.57
2023-05-05T12:10:29.308Z,2.75
2023-05-05T12:12:59.901Z,3.13
2023-05-05T12:15:33.595Z,3.92
2023-05-05T12:18:17.699Z,3.70
2023-05-05T12:20:53.168Z,3.30
2023-05-05T12:23:23.168Z,3.03
2023-05-05T12:25:58.097Z,2.47
2023-05-05T12:28:49.028Z,2.80
2023-05-05T12:31:32.538Z,3.22
2023-05-05T12:34:11.765Z,3.00
2023-05-05T12:36:53.821Z,3.33
2023-05-05T12:39:36.892Z,2.78
2023-05-05T12:42:12.816Z,3.28
2023-05-05T12:44:48.218Z,2.90
2023-05-05T12:47:37.202Z,2.60
2023-05-05T12:50:14.345Z,2.85
2023-05-05T12:55:47.771Z,2.42
2023-05-05T12:58:21.107Z,2.85
2023-05-05T13:01:10.824Z,2.22
2023-05-05T13:03:44.239Z,2.55
2023-05-05T13:06:22.093Z,2.75
2023-05-05T13:09:03.684Z,2.10
2023-05-05T13:11:39.888Z,2.38
2023-05-05T13:14:10.046Z,2.30
2023-05-05T13:16:41.049Z,3.13
2023-05-05T13:19:08.434Z,3.15
2023-05-05T13:21:44.256Z,2.50
2023-05-05T13:24:28.755Z,2.50
2023-05-05T13:27:09.100Z,2.22
2023-05-05T13:29:36.859Z,2.22
2023-05-05T13:32:08.451Z,2.42
2023-05-05T13:34:55.950Z,2.38
2023-05-05T13:37:26.643Z,2.20
2023-05-05T13:39:59.648Z,2.72
2023-05-05T13:42:26.848Z,2.35
2023-05-05T13:44:57.564Z,2.22
2023-05-05T13:47:28.134Z,2.22
2023-05-05T13:50:01.465Z,2.40
2023-05-05T13:52:29.874Z,2.10
2023-05-05T13:55:01.076Z,2.00
2023-05-05T13:57:29.010Z,1.85
2023-05-05T14:00:03.699Z,2.20
2023-05-05T14:02:34.661Z,2.42
2023-05-05T14:05:11.301Z,1.75
2023-05-05T14:07:41.648Z,2.42
2023-05-05T14:10:12.044Z,2.22
2023-05-05T14:12:42.399Z,1.88
2023-05-05T14:15:12.888Z,1.60
2023-05-05T14:17:43.192Z,1.70
2023-05-05T14:20:13.403Z,2.10
2023-05-05T14:22:43.981Z,1.80
2023-05-05T14:25:14.393Z,2.22
2023-05-05T14:27:44.819Z,1.90
2023-05-05T14:30:21.445Z,1.52
2023-05-05T14:32:55.594Z,1.52
2023-05-05T14:35:22.906Z,1.65
2023-05-05T14:37:50.183Z,1.45
2023-05-05T14:40:17.496Z,1.80
2023-05-05T14:42:44.671Z,1.60
2023-05-05T14:45:12.435Z,1.98
2023-05-05T14:47:39.604Z,1.90
2023-05-05T14:50:09.839Z,1.83
2023-05-05T14:52:40.920Z,2.08
2023-05-05T14:55:08.465Z,2.28
2023-05-05T14:57:36.073Z,1.30
2023-05-05T15:00:09.770Z,1.52
2023-05-05T15:02:38.209Z,1.73
2023-05-05T15:05:08.754Z,1.90
2023-05-05T15:07:40.216Z,1.60
2023-05-05T15:10:08.034Z,2.13
2023-05-05T15:12:35.486Z,1.70
2023-05-05T15:15:02.969Z,1.83
2023-05-05T15:17:34.299Z,2.08
2023-05-05T15:20:01.660Z,1.80
2023-05-05T15:22:28.894Z,1.67
2023-05-05T15:24:55.992Z,2.08
2023-05-05T15:27:23.384Z,1.40
2023-05-05T15:29:50.545Z,1.75
2023-05-05T15:32:20.145Z,1.75
2023-05-05T15:34:55.903Z,1.98
2023-05-05T15:37:23.421Z,1.95
2023-05-05T15:39:53.255Z,1.98
2023-05-05T15:42:23.384Z,1.58
2023-05-05T15:44:51.513Z,1.73
2023-05-05T15:47:19.297Z,1.95
2023-05-05T15:49:48.964Z,1.63
2023-05-05T15:52:22.306Z,1.70
2023-05-05T15:54:49.617Z,1.88
2023-05-05T15:57:19.354Z,1.80
2023-05-05T15:59:46.722Z,1.98
2023-05-05T16:02:13.941Z,2.08
2023-05-05T16:04:43.338Z,1.70
2023-05-05T16:07:11.479Z,2.03
2023-05-05T16:09:38.841Z,1.60
2023-05-05T16:12:06.333Z,1.80
2023-05-05T16:14:33.538Z,1.92
2023-05-05T16:17:03.778Z,1.98
2023-05-05T16:19:31.405Z,1.40
2023-05-05T16:21:58.748Z,1.52
2023-05-05T16:24:25.941Z,1.92
2023-05-05T16:26:53.242Z,2.00
2023-05-05T16:29:23.005Z,1.60
2023-05-05T16:31:50.323Z,1.67
2023-05-05T16:34:20.040Z,1.85
2023-05-05T16:36:47.535Z,2.15
2023-05-05T16:39:14.977Z,2.00
2023-05-05T16:41:42.300Z,1.50
2023-05-05T16:44:13.076Z,2.92
2023-05-05T16:46:41.074Z,1.85
2023-05-05T16:49:08.667Z,1.90
2023-05-05T16:51:36.333Z,1.73
2023-05-05T16:54:03.682Z,1.35
2023-05-05T16:56:36.657Z,1.52
2023-05-05T16:59:06.785Z,2.65
2023-05-05T17:01:35.153Z,2.00
2023-05-05T17:04:02.692Z,2.30
2023-05-05T17:06:33.553Z,2.00
2023-05-05T17:09:03.839Z,2.08
2023-05-05T17:11:32.017Z,2.20
2023-05-05T17:14:05.531Z,2.80
2023-05-05T17:19:03.076Z,1.75
2023-05-05T17:21:30.292Z,2.20
2023-05-05T17:23:58.790Z,2.00
2023-05-05T17:26:26.155Z,2.42
2023-05-05T17:28:53.385Z,2.00
2023-05-05T17:31:20.731Z,1.80
2023-05-05T17:33:47.888Z,1.70
2023-05-05T17:36:15.320Z,2.15
2023-05-05T17:38:45.454Z,1.98
2023-05-05T17:41:15.361Z,1.40
2023-05-05T17:43:42.846Z,1.92
2023-05-05T17:46:10.129Z,2.10
2023-05-05T17:48:37.366Z,1.60
2023-05-05T17:51:17.474Z,2.00
2023-05-05T17:53:48.151Z,1.83
2023-05-05T17:56:15.191Z,2.20
2023-05-05T17:58:42.322Z,2.25
2023-05-05T18:01:24.837Z,1.75
2023-05-05T18:03:55.251Z,2.20
2023-05-05T18:06:22.433Z,3.10
2023-05-05T18:08:52.976Z,3.13
2023-05-05T18:11:29.503Z,2.33
2023-05-05T18:14:11.002Z,2.50
2023-05-05T18:16:53.722Z,2.92
2023-05-05T18:19:36.670Z,2.55
2023-05-05T18:22:15.477Z,2.60
2023-05-05T18:24:49.005Z,2.42
2023-05-05T18:27:21.430Z,2.63
2023-05-05T18:29:48.590Z,2.45
2023-05-05T18:32:15.867Z,1.85
2023-05-05T18:34:43.406Z,2.97
2023-05-05T18:37:12.982Z,2.13
2023-05-05T18:39:44.105Z,2.50
2023-05-05T18:42:15.931Z,2.50
2023-05-05T18:44:47.917Z,3.55
2023-05-05T18:47:22.397Z,2.97
2023-05-05T18:49:50.080Z,3.25
2023-05-05T18:52:17.198Z,2.72
2023-05-05T18:54:46.809Z,3.28
2023-05-05T18:57:16.848Z,2.92
2023-05-05T18:59:50.827Z,2.42
2023-05-05T19:02:20.509Z,2.65
2023-05-05T19:04:52.009Z,3.42
2023-05-05T19:07:35.511Z,3.42
2023-05-05T19:10:23.683Z,3.50
2023-05-05T19:12:53.188Z,3.60
2023-05-05T19:15:21.708Z,4.13
2023-05-05T19:17:49.580Z,3.60
2023-05-05T19:20:17.643Z,3.47
2023-05-05T19:22:45.242Z,3.38
2023-05-05T19:25:16.516Z,3.78
2023-05-05T19:27:47.292Z,3.50
2023-05-05T19:30:16.994Z,3.22
2023-05-05T19:32:46.580Z,3.63
2023-05-05T19:35:16.053Z,2.92
2023-05-05T19:37:44.486Z,3.13
2023-05-05T19:40:13.276Z,3.33
2023-05-05T19:42:42.848Z,3.60
2023-05-05T19:45:10.114Z,3.30
2023-05-05T19:47:37.879Z,3.70
2023-05-05T19:50:05.433Z,4.03
2023-05-05T19:52:37.222Z,4.40
2023-05-05T19:55:06.270Z,3.33
2023-05-05T19:57:33.853Z,3.97
2023-05-05T20:00:01.649Z,4.65
2023-05-05T20:02:33.248Z,4.70
2023-05-05T20:05:06.910Z,3.78
2023-05-05T20:07:34.152Z,4.10
2023-05-05T20:10:01.361Z,3.97
2023-05-05T20:12:28.728Z,3.50
2023-05-05T20:14:58.154Z,3.72
2023-05-05T20:17:29.271Z,3.35
2023-05-05T20:19:58.363Z,3.80
2023-05-05T20:22:28.200Z,4.78
2023-05-05T20:24:55.378Z,4.88
2023-05-05T20:27:26.657Z,4.97
2023-05-05T20:29:59.579Z,4.45
2023-05-05T20:32:27.246Z,3.40
2023-05-05T20:35:09.965Z,4.20
2023-05-05T20:37:45.902Z,3.97
2023-05-05T20:40:13.619Z,4.15
2023-05-05T20:42:51.071Z,4.40
2023-05-05T20:45:18.314Z,4.03
2023-05-05T20:47:47.534Z,3.80
2023-05-05T20:50:14.960Z,4.43
2023-05-05T20:52:50.459Z,4.05
2023-05-05T20:55:27.329Z,4.47
2023-05-05T20:57:59.876Z,4.75
2023-05-05T21:00:30.738Z,4.63
2023-05-05T21:02:58.937Z,4.55
2023-05-05T21:05:28.321Z,4.78
2023-05-05T21:08:01.138Z,4.72
2023-05-05T21:10:35.634Z,5.20
2023-05-05T21:13:08.219Z,5.00
2023-05-05T21:15:44.448Z,3.80
2023-05-05T21:18:11.950Z,4.45
2023-05-05T21:20:44.993Z,4.40
2023-05-05T21:25:40.051Z,4.97
2023-05-05T21:28:08.958Z,4.82
2023-05-05T21:30:38.196Z,5.00
2023-05-05T21:33:06.623Z,5.65
2023-05-05T21:35:34.590Z,5.32
2023-05-05T21:38:02.027Z,5.03
2023-05-05T21:40:29.084Z,6.00
2023-05-05T21:42:56.865Z,5.93
2023-05-05T21:45:24.028Z,5.63
2023-05-05T21:47:56.521Z,6.07
2023-05-05T21:50:28.240Z,5.85
2023-05-05T21:52:56.684Z,5.82
2023-05-05T21:55:23.860Z,7.03
2023-05-05T21:57:51.189Z,6.63
2023-05-05T22:00:18.444Z,6.10
2023-05-05T22:02:45.788Z,6.10
2023-05-05T22:05:13.378Z,6.93
2023-05-05T22:07:40.876Z,6.53
2023-05-05T22:10:08.644Z,5.82
2023-05-05T22:12:35.848Z,7.35
2023-05-05T22:15:02.958Z,7.60
2023-05-05T22:17:30.062Z,7.47
2023-05-05T22:19:57.191Z,7.32
2023-05-05T22:22:24.524Z,8.18
2023-05-05T22:24:51.752Z,8.75
2023-05-05T22:27:18.904Z,8.98
2023-05-05T22:29:47.348Z,9.15
2023-05-05T22:32:14.326Z,9.02
2023-05-05T22:34:41.620Z,9.30
2023-05-05T22:37:09.979Z,9.40
2023-05-05T22:39:39.418Z,9.85
2023-05-05T22:42:06.694Z,8.40
2023-05-05T22:44:33.790Z,9.25
2023-05-05T22:47:03.299Z,8.98
2023-05-05T22:49:30.540Z,10.35
2023-05-05T22:51:58.013Z,10.95
2023-05-05T22:54:25.156Z,10.43
2023-05-05T22:56:52.204Z,10.32
2023-05-05T22:59:20.034Z,10.65
2023-05-05T23:01:47.091Z,10.60
2023-05-05T23:04:14.336Z,10.85
2023-05-05T23:06:45.014Z,11.48
2023-05-05T23:09:12.128Z,12.55
2023-05-05T23:11:39.175Z,11.60
2023-05-05T23:14:06.215Z,12.27
2023-05-05T23:16:33.406Z,12.32
2023-05-05T23:19:00.581Z,11.90
2023-05-05T23:21:29.223Z,12.32
2023-05-05T23:23:59.328Z,12.15
2023-05-05T23:26:26.506Z,12.27
2023-05-05T23:28:53.670Z,13.02
2023-05-05T23:31:20.887Z,12.38
2023-05-05T23:33:48.339Z,13.48
2023-05-05T23:36:15.503Z,13.38
2023-05-05T23:38:42.592Z,14.00
2023-05-05T23:41:09.774Z,13.63
2023-05-05T23:43:36.819Z,13.80
2023-05-05T23:46:03.932Z,20.40
2023-05-05T23:48:31.110Z,23.15
2023-05-05T23:50:58.185Z,16.73
2023-05-05T23:53:28.068Z,15.30
2023-05-05T23:55:58.114Z,14.57
2023-05-05T23:58:26.880Z,16.15
